UAE1DM OMDB-EDDM
Flight info
| Callsign | UAE1DM |
|---|---|
| Flight time | N/A |
| Altitude | 36000 |
| Route | RIDAP M557 TUMAK L602 GADSI M860 SEPTU DCT VUSEB/N0473F380 M860 NINVA UM860 ODALI UL852 NEGEM DCT BULEN DCT DIRER DCT TISAK DCT BABIT DCT GOTAR DCT AMADI Q113 NAPSA NAPSA1B |
| Aircraft | B77W/H-SDE1E2E3FGHIJ2J3J4J5M1RWXY/LB1D1 |
Departure
| Time | 2026-04-24 13:34 |
|---|---|
| Airport | Dubai International Airport (OMDB) |
Arrival
| Time | N/A |
|---|---|
| Airport | Munich Airport (EDDM) |
| Time | Latitude | Longitude | Altitude | Speed | Heading |
|---|---|---|---|---|---|
| 2026-04-24 12:55 | 25.24070 | 55.37488 | 76 ft | 0 kts | 354° |
| 2026-04-24 13:25 | 25.24068 | 55.37488 | 76 ft | 1 kts | 355° |
| 2026-04-24 13:25 | 25.24053 | 55.37488 | 76 ft | 2 kts | 11° |
| 2026-04-24 13:25 | 25.24039 | 55.37483 | 76 ft | 2 kts | 26° |
| 2026-04-24 13:25 | 25.24026 | 55.37475 | 76 ft | 2 kts | 39° |
| 2026-04-24 13:26 | 25.24015 | 55.37463 | 76 ft | 2 kts | 53° |
| 2026-04-24 13:26 | 25.24008 | 55.37449 | 76 ft | 2 kts | 67° |
| 2026-04-24 13:26 | 25.24003 | 55.37434 | 76 ft | 2 kts | 81° |
| 2026-04-24 13:26 | 25.24002 | 55.37417 | 76 ft | 2 kts | 94° |
| 2026-04-24 13:27 | 25.24005 | 55.37401 | 76 ft | 2 kts | 108° |
| 2026-04-24 13:27 | 25.24010 | 55.37386 | 76 ft | 2 kts | 122° |
| 2026-04-24 13:27 | 25.24015 | 55.37379 | 76 ft | 0 kts | 123° |
| 2026-04-24 13:29 | 25.24014 | 55.37379 | 76 ft | 0 kts | 123° |
| 2026-04-24 13:30 | 25.24005 | 55.37395 | 76 ft | 5 kts | 123° |
| 2026-04-24 13:30 | 25.23978 | 55.37461 | 76 ft | 11 kts | 103° |
| 2026-04-24 13:30 | 25.23980 | 55.37546 | 76 ft | 10 kts | 72° |
| 2026-04-24 13:30 | 25.24020 | 55.37608 | 76 ft | 9 kts | 38° |
| 2026-04-24 13:31 | 25.24081 | 55.37648 | 76 ft | 11 kts | 30° |
| 2026-04-24 13:31 | 25.24167 | 55.37705 | 76 ft | 16 kts | 31° |
| 2026-04-24 13:31 | 25.24260 | 55.37767 | 76 ft | 14 kts | 31° |
| 2026-04-24 13:31 | 25.24341 | 55.37824 | 76 ft | 13 kts | 33° |
| 2026-04-24 13:32 | 25.24418 | 55.37882 | 76 ft | 15 kts | 35° |
| 2026-04-24 13:32 | 25.24513 | 55.37954 | 76 ft | 16 kts | 34° |
| 2026-04-24 13:32 | 25.24603 | 55.38020 | 76 ft | 14 kts | 32° |
| 2026-04-24 13:32 | 25.24684 | 55.38076 | 76 ft | 13 kts | 32° |
| 2026-04-24 13:33 | 25.24755 | 55.38107 | 76 ft | 8 kts | 332° |
| 2026-04-24 13:33 | 25.24790 | 55.38055 | 76 ft | 18 kts | 301° |
| 2026-04-24 13:33 | 25.24991 | 55.37697 | 76 ft | 90 kts | 301° |
| 2026-04-24 13:33 | 25.25442 | 55.36886 | 78 ft | 154 kts | 302° |
| 2026-04-24 13:34 | 25.26053 | 55.35793 | 444 ft | 175 kts | 302° |
| 2026-04-24 13:34 | 25.26692 | 55.34619 | 1254 ft | 178 kts | 302° |
| 2026-04-24 13:34 | 25.27321 | 55.33479 | 1782 ft | 182 kts | 303° |
| 2026-04-24 13:34 | 25.28014 | 55.32240 | 2033 ft | 201 kts | 303° |
| 2026-04-24 13:35 | 25.28775 | 55.30874 | 2344 ft | 218 kts | 302° |
| 2026-04-24 13:35 | 25.29566 | 55.29341 | 2646 ft | 236 kts | 291° |
| 2026-04-24 13:35 | 25.29925 | 55.27533 | 2993 ft | 252 kts | 279° |
| 2026-04-24 13:35 | 25.30196 | 55.25568 | 3348 ft | 269 kts | 279° |
| 2026-04-24 13:36 | 25.30479 | 55.23470 | 3826 ft | 282 kts | 279° |
| 2026-04-24 13:36 | 25.30777 | 55.21261 | 4251 ft | 297 kts | 278° |
| 2026-04-24 13:36 | 25.31085 | 55.18970 | 4659 ft | 312 kts | 278° |
| 2026-04-24 13:36 | 25.31411 | 55.16542 | 5112 ft | 328 kts | 278° |
| 2026-04-24 13:37 | 25.31752 | 55.14001 | 5523 ft | 341 kts | 278° |
| 2026-04-24 13:37 | 25.32103 | 55.11373 | 6125 ft | 348 kts | 278° |
| 2026-04-24 13:37 | 25.32456 | 55.08732 | 6828 ft | 350 kts | 278° |
| 2026-04-24 13:37 | 25.32814 | 55.06053 | 7548 ft | 353 kts | 277° |
| 2026-04-24 13:38 | 25.33170 | 55.03381 | 8236 ft | 355 kts | 277° |
| 2026-04-24 13:38 | 25.33527 | 55.00692 | 8876 ft | 359 kts | 277° |
| 2026-04-24 13:38 | 25.33892 | 54.97944 | 9487 ft | 363 kts | 277° |
| 2026-04-24 13:38 | 25.34255 | 54.95205 | 10149 ft | 365 kts | 277° |
| 2026-04-24 13:39 | 25.34627 | 54.92403 | 10819 ft | 367 kts | 277° |
| 2026-04-24 13:39 | 25.35167 | 54.89668 | 11383 ft | 372 kts | 285° |
| 2026-04-24 13:39 | 25.35943 | 54.86918 | 11968 ft | 375 kts | 286° |
| 2026-04-24 13:39 | 25.36737 | 54.84163 | 12576 ft | 377 kts | 286° |
| 2026-04-24 13:40 | 25.37521 | 54.81438 | 13178 ft | 378 kts | 286° |
| 2026-04-24 13:40 | 25.38318 | 54.78657 | 13721 ft | 381 kts | 286° |
| 2026-04-24 13:40 | 25.39130 | 54.75822 | 14276 ft | 388 kts | 287° |
| 2026-04-24 13:40 | 25.39940 | 54.72989 | 15160 ft | 391 kts | 287° |
| 2026-04-24 13:41 | 25.40756 | 54.70131 | 16157 ft | 391 kts | 287° |
| 2026-04-24 13:41 | 25.41568 | 54.67281 | 17016 ft | 395 kts | 287° |
| 2026-04-24 13:41 | 25.42402 | 54.64354 | 17785 ft | 400 kts | 287° |
| 2026-04-24 13:41 | 25.43235 | 54.61427 | 18525 ft | 406 kts | 287° |
| 2026-04-24 13:42 | 25.44109 | 54.58448 | 19320 ft | 410 kts | 287° |
| 2026-04-24 13:42 | 25.44999 | 54.55454 | 20119 ft | 413 kts | 287° |
| 2026-04-24 13:42 | 25.45886 | 54.52465 | 20874 ft | 416 kts | 287° |
| 2026-04-24 13:42 | 25.46797 | 54.49390 | 21576 ft | 421 kts | 287° |
| 2026-04-24 13:43 | 25.47710 | 54.46303 | 22257 ft | 425 kts | 286° |
| 2026-04-24 13:43 | 25.48622 | 54.43216 | 22964 ft | 429 kts | 286° |
| 2026-04-24 13:43 | 25.49547 | 54.40078 | 23658 ft | 432 kts | 286° |
| 2026-04-24 13:43 | 25.50478 | 54.36919 | 24313 ft | 436 kts | 286° |
| 2026-04-24 13:44 | 25.51426 | 54.33700 | 24984 ft | 440 kts | 285° |
| 2026-04-24 13:44 | 25.52376 | 54.30470 | 25660 ft | 443 kts | 286° |
| 2026-04-24 13:44 | 25.53319 | 54.27259 | 26293 ft | 447 kts | 286° |
| 2026-04-24 13:44 | 25.54285 | 54.23968 | 26920 ft | 451 kts | 285° |
| 2026-04-24 13:45 | 25.55260 | 54.20647 | 27557 ft | 454 kts | 286° |
| 2026-04-24 13:45 | 25.56233 | 54.17333 | 28165 ft | 458 kts | 285° |
| 2026-04-24 13:45 | 25.57209 | 54.14005 | 28732 ft | 462 kts | 286° |
| 2026-04-24 13:45 | 25.58213 | 54.10577 | 29320 ft | 466 kts | 285° |
| 2026-04-24 13:46 | 25.59204 | 54.07188 | 29885 ft | 470 kts | 286° |
| 2026-04-24 13:46 | 25.60206 | 54.03722 | 30547 ft | 472 kts | 285° |
| 2026-04-24 13:46 | 25.61184 | 54.00290 | 31319 ft | 470 kts | 285° |
| 2026-04-24 13:46 | 25.62149 | 53.96906 | 32351 ft | 461 kts | 285° |
| 2026-04-24 13:47 | 25.63105 | 53.93550 | 33352 ft | 453 kts | 285° |
| 2026-04-24 13:47 | 25.64042 | 53.90255 | 34057 ft | 451 kts | 285° |
| 2026-04-24 13:47 | 25.64984 | 53.86942 | 34748 ft | 447 kts | 285° |
| 2026-04-24 13:47 | 25.65914 | 53.83666 | 35376 ft | 441 kts | 285° |
| 2026-04-24 13:48 | 25.66834 | 53.80425 | 35672 ft | 440 kts | 286° |
| 2026-04-24 13:48 | 25.67751 | 53.77188 | 35830 ft | 440 kts | 286° |
| 2026-04-24 13:48 | 25.69562 | 53.70787 | 35827 ft | 437 kts | 285° |
| 2026-04-24 13:49 | 25.71370 | 53.64358 | 35832 ft | 437 kts | 285° |
| 2026-04-24 13:49 | 25.73183 | 53.57897 | 35830 ft | 439 kts | 285° |
| 2026-04-24 13:50 | 25.74988 | 53.51458 | 35829 ft | 437 kts | 285° |
| 2026-04-24 13:50 | 25.76769 | 53.45112 | 35828 ft | 429 kts | 285° |
| 2026-04-24 13:51 | 25.78538 | 53.38806 | 35829 ft | 426 kts | 285° |
| 2026-04-24 13:51 | 25.80303 | 53.32500 | 35847 ft | 427 kts | 285° |
| 2026-04-24 13:52 | 25.82060 | 53.26212 | 35845 ft | 428 kts | 285° |
| 2026-04-24 13:52 | 25.83818 | 53.19907 | 35844 ft | 427 kts | 285° |
| 2026-04-24 13:53 | 25.86107 | 53.13829 | 35843 ft | 429 kts | 292° |
| 2026-04-24 13:53 | 25.88568 | 53.07801 | 35846 ft | 429 kts | 291° |
| 2026-04-24 13:54 | 25.91033 | 53.01750 | 35844 ft | 430 kts | 291° |
| 2026-04-24 13:54 | 25.93469 | 52.95755 | 35857 ft | 430 kts | 291° |
| 2026-04-24 13:55 | 25.95927 | 52.89697 | 35871 ft | 429 kts | 291° |
| 2026-04-24 13:55 | 25.98375 | 52.83649 | 35864 ft | 430 kts | 291° |
| 2026-04-24 13:56 | 26.00817 | 52.77611 | 35870 ft | 431 kts | 291° |
| 2026-04-24 13:56 | 26.03360 | 52.71557 | 35867 ft | 430 kts | 294° |
| 2026-04-24 13:57 | 26.06057 | 52.65630 | 35865 ft | 431 kts | 293° |
| 2026-04-24 13:57 | 26.08751 | 52.59677 | 35860 ft | 432 kts | 294° |
| 2026-04-24 13:58 | 26.11439 | 52.53711 | 35846 ft | 430 kts | 294° |
| 2026-04-24 13:58 | 26.14124 | 52.47765 | 35852 ft | 431 kts | 293° |
| 2026-04-24 13:59 | 26.16807 | 52.41817 | 35850 ft | 430 kts | 294° |
| 2026-04-24 13:59 | 26.19484 | 52.35869 | 35852 ft | 431 kts | 293° |
| 2026-04-24 14:00 | 26.22169 | 52.29894 | 35865 ft | 431 kts | 292° |
| 2026-04-24 14:00 | 26.24770 | 52.23899 | 35866 ft | 430 kts | 292° |
| 2026-04-24 14:01 | 26.27365 | 52.17892 | 35865 ft | 429 kts | 292° |
| 2026-04-24 14:01 | 26.29942 | 52.11924 | 35867 ft | 429 kts | 292° |
| 2026-04-24 14:02 | 26.32527 | 52.05934 | 35865 ft | 431 kts | 292° |
| 2026-04-24 14:02 | 26.35119 | 51.99934 | 35870 ft | 430 kts | 292° |
| 2026-04-24 14:03 | 26.37661 | 51.93915 | 35863 ft | 428 kts | 288° |
| 2026-04-24 14:03 | 26.39759 | 51.87733 | 35881 ft | 428 kts | 287° |
| 2026-04-24 14:04 | 26.42433 | 51.79756 | 35888 ft | 426 kts | 287° |
| 2026-04-24 14:04 | 26.45862 | 51.69511 | 35881 ft | 428 kts | 287° |
| 2026-04-24 14:05 | 26.47941 | 51.63290 | 35882 ft | 428 kts | 287° |
| 2026-04-24 14:05 | 26.50014 | 51.57070 | 35874 ft | 428 kts | 287° |
| 2026-04-24 14:06 | 26.52081 | 51.50853 | 35880 ft | 426 kts | 287° |
| 2026-04-24 14:06 | 26.54145 | 51.44635 | 35871 ft | 429 kts | 287° |
| 2026-04-24 14:07 | 26.56210 | 51.38408 | 35876 ft | 426 kts | 287° |
| 2026-04-24 14:07 | 26.58268 | 51.32190 | 35888 ft | 428 kts | 286° |
| 2026-04-24 14:08 | 26.60337 | 51.25937 | 35891 ft | 427 kts | 287° |
| 2026-04-24 14:08 | 26.62394 | 51.19726 | 35896 ft | 428 kts | 286° |
| 2026-04-24 14:09 | 26.64446 | 51.13522 | 35890 ft | 427 kts | 286° |
| 2026-04-24 14:09 | 26.66810 | 51.07436 | 35890 ft | 431 kts | 296° |
| 2026-04-24 14:10 | 26.70547 | 51.02150 | 35893 ft | 441 kts | 309° |
| 2026-04-24 14:10 | 26.74915 | 50.97297 | 35893 ft | 443 kts | 309° |
| 2026-04-24 14:11 | 26.79313 | 50.92419 | 35890 ft | 444 kts | 309° |
| 2026-04-24 14:12 | 26.85830 | 50.85183 | 35887 ft | 440 kts | 309° |
| 2026-04-24 14:12 | 26.90214 | 50.80305 | 35891 ft | 443 kts | 309° |
| 2026-04-24 14:13 | 26.94583 | 50.75440 | 35887 ft | 443 kts | 309° |
| 2026-04-24 14:13 | 26.98945 | 50.70579 | 35888 ft | 441 kts | 308° |
| 2026-04-24 14:14 | 27.03283 | 50.65737 | 35883 ft | 442 kts | 308° |
| 2026-04-24 14:14 | 27.09782 | 50.58476 | 35882 ft | 437 kts | 308° |
| 2026-04-24 14:15 | 27.14145 | 50.53590 | 35882 ft | 442 kts | 308° |
| 2026-04-24 14:15 | 27.18489 | 50.48723 | 35879 ft | 440 kts | 308° |
| 2026-04-24 14:16 | 27.22805 | 50.43881 | 35880 ft | 438 kts | 308° |
| 2026-04-24 14:17 | 27.29289 | 50.36595 | 35874 ft | 439 kts | 308° |
| 2026-04-24 14:17 | 27.35784 | 50.29287 | 35895 ft | 436 kts | 308° |
| 2026-04-24 14:18 | 27.40068 | 50.24456 | 35897 ft | 438 kts | 308° |
| 2026-04-24 14:18 | 27.44344 | 50.19633 | 35892 ft | 433 kts | 307° |
| 2026-04-24 14:19 | 27.48621 | 50.14800 | 35892 ft | 438 kts | 308° |
| 2026-04-24 14:19 | 27.52936 | 50.09919 | 35893 ft | 435 kts | 308° |
| 2026-04-24 14:20 | 27.57186 | 50.05106 | 35896 ft | 437 kts | 308° |
| 2026-04-24 14:20 | 27.61461 | 50.00259 | 35899 ft | 435 kts | 307° |
| 2026-04-24 14:21 | 27.65734 | 49.95408 | 35905 ft | 438 kts | 308° |
| 2026-04-24 14:21 | 27.70029 | 49.90527 | 35912 ft | 434 kts | 307° |
| 2026-04-24 14:22 | 27.74277 | 49.85694 | 35911 ft | 437 kts | 307° |
| 2026-04-24 14:23 | 27.80669 | 49.78411 | 35906 ft | 433 kts | 307° |
| 2026-04-24 14:23 | 27.84913 | 49.73568 | 35904 ft | 434 kts | 307° |
| 2026-04-24 14:24 | 27.89167 | 49.68706 | 35908 ft | 435 kts | 307° |
| 2026-04-24 14:24 | 27.93402 | 49.63864 | 35907 ft | 432 kts | 307° |
| 2026-04-24 14:25 | 27.96927 | 49.59827 | 35904 ft | 434 kts | 307° |
| 2026-04-24 14:25 | 28.01846 | 49.54189 | 35906 ft | 432 kts | 307° |
| 2026-04-24 14:26 | 28.06084 | 49.49324 | 35904 ft | 431 kts | 307° |
| 2026-04-24 14:26 | 28.10275 | 49.44508 | 35903 ft | 430 kts | 307° |
| 2026-04-24 14:27 | 28.14527 | 49.39613 | 35896 ft | 432 kts | 307° |
| 2026-04-24 14:27 | 28.18732 | 49.34769 | 35895 ft | 430 kts | 307° |
| 2026-04-24 14:28 | 28.22915 | 49.29945 | 35908 ft | 429 kts | 307° |
| 2026-04-24 14:28 | 28.27138 | 49.25066 | 35907 ft | 433 kts | 307° |
| 2026-04-24 14:29 | 28.31335 | 49.20215 | 35905 ft | 430 kts | 306° |
| 2026-04-24 14:29 | 28.35517 | 49.15373 | 35901 ft | 431 kts | 307° |
| 2026-04-24 14:30 | 28.39038 | 49.11334 | 35897 ft | 435 kts | 309° |
| 2026-04-24 14:30 | 28.44814 | 49.06599 | 35901 ft | 443 kts | 317° |
| 2026-04-24 14:31 | 28.49970 | 49.02665 | 35903 ft | 446 kts | 317° |
| 2026-04-24 14:31 | 28.55118 | 48.98728 | 35895 ft | 443 kts | 317° |
| 2026-04-24 14:32 | 28.60210 | 48.94821 | 35890 ft | 443 kts | 317° |
| 2026-04-24 14:32 | 28.65358 | 48.90864 | 35894 ft | 443 kts | 317° |
| 2026-04-24 14:33 | 28.70450 | 48.86943 | 35889 ft | 445 kts | 317° |
| 2026-04-24 14:33 | 28.75598 | 48.82976 | 35886 ft | 443 kts | 317° |
| 2026-04-24 14:34 | 28.80732 | 48.79010 | 35883 ft | 447 kts | 317° |
| 2026-04-24 14:34 | 28.85876 | 48.75073 | 35890 ft | 444 kts | 317° |
| 2026-04-24 14:35 | 28.91000 | 48.71148 | 35882 ft | 445 kts | 317° |
| 2026-04-24 14:35 | 28.96126 | 48.67216 | 35887 ft | 444 kts | 317° |
| 2026-04-24 14:36 | 29.01262 | 48.63270 | 35878 ft | 444 kts | 317° |
| 2026-04-24 14:36 | 29.06436 | 48.59290 | 35878 ft | 446 kts | 317° |